createdAt,value
2018-07-12T00:01:56.047Z,82.00
2018-07-12T00:04:24.078Z,82.89
2018-07-12T00:06:51.317Z,82.41
2018-07-12T00:09:18.423Z,82.15
2018-07-12T00:11:45.642Z,81.76
2018-07-12T00:14:12.731Z,81.81
2018-07-12T00:16:39.859Z,82.36
2018-07-12T00:19:07.521Z,82.28
2018-07-12T00:21:35.441Z,80.74
2018-07-12T00:24:02.523Z,80.73
2018-07-12T00:26:29.934Z,82.12
2018-07-12T00:28:57.224Z,80.71
2018-07-12T00:31:24.712Z,80.71
2018-07-12T00:33:51.958Z,80.39
2018-07-12T00:36:18.969Z,80.68
2018-07-12T00:38:45.996Z,82.41
2018-07-12T00:41:13.091Z,81.24
2018-07-12T00:43:40.467Z,81.38
2018-07-12T00:46:07.577Z,82.64
2018-07-12T00:48:34.660Z,82.71
2018-07-12T00:51:01.842Z,82.19
2018-07-12T00:53:28.948Z,84.31
2018-07-12T00:55:56.012Z,83.45
2018-07-12T00:58:24.128Z,85.95
2018-07-12T01:00:51.213Z,85.99
2018-07-12T01:03:18.307Z,85.54
2018-07-12T01:05:45.407Z,86.05
2018-07-12T01:08:12.547Z,84.38
2018-07-12T01:10:39.863Z,83.91
2018-07-12T01:13:06.958Z,85.59
2018-07-12T01:15:34.048Z,84.49
2018-07-12T01:18:01.140Z,85.25
2018-07-12T01:20:28.285Z,85.45
2018-07-12T01:22:55.516Z,84.54
2018-07-12T01:25:22.710Z,84.70
2018-07-12T01:27:49.796Z,84.52
2018-07-12T01:30:16.928Z,84.72
2018-07-12T01:32:44.713Z,84.79
2018-07-12T01:35:11.822Z,85.33
2018-07-12T01:37:39.487Z,86.07
2018-07-12T01:40:06.579Z,84.94
2018-07-12T01:42:33.763Z,84.98
2018-07-12T01:45:00.860Z,85.43
2018-07-12T01:47:30.150Z,84.49
2018-07-12T01:49:57.361Z,85.41
2018-07-12T01:52:24.580Z,84.28
2018-07-12T01:54:51.712Z,85.86
2018-07-12T01:57:18.901Z,85.06
2018-07-12T01:59:46.064Z,84.14
2018-07-12T02:02:13.337Z,84.25
2018-07-12T02:04:40.497Z,83.75
2018-07-12T02:07:07.623Z,85.44
2018-07-12T02:09:34.778Z,85.20
2018-07-12T02:12:01.926Z,84.88
2018-07-12T02:14:29.071Z,83.94
2018-07-12T02:16:56.493Z,84.11
2018-07-12T02:19:24.522Z,84.76
2018-07-12T02:21:51.800Z,86.63
2018-07-12T02:24:18.893Z,87.43
2018-07-12T02:26:46.667Z,88.63
2018-07-12T02:29:13.820Z,87.40
2018-07-12T02:31:40.977Z,86.79
2018-07-12T02:34:08.068Z,88.12
2018-07-12T02:36:35.259Z,87.62
2018-07-12T02:39:02.334Z,88.21
2018-07-12T02:41:29.433Z,87.43
2018-07-12T02:43:56.546Z,86.67
2018-07-12T02:46:23.762Z,87.36
2018-07-12T02:48:51.883Z,88.11
2018-07-12T02:51:19.006Z,88.14
2018-07-12T02:53:46.079Z,88.32
2018-07-12T02:56:13.190Z,87.68
2018-07-12T02:58:40.607Z,88.58
2018-07-12T03:01:07.731Z,88.31
2018-07-12T03:03:34.918Z,87.69
2018-07-12T03:06:02.040Z,88.14
2018-07-12T03:08:29.147Z,87.16
2018-07-12T03:10:56.249Z,87.82
2018-07-12T03:13:23.448Z,87.50
2018-07-12T03:15:51.442Z,88.48
2018-07-12T03:18:18.535Z,89.21
2018-07-12T03:20:45.640Z,87.78
2018-07-12T03:23:12.740Z,87.99
2018-07-12T03:25:39.860Z,88.34
2018-07-12T03:28:07.183Z,88.43
2018-07-12T03:30:34.741Z,88.46
2018-07-12T03:33:01.875Z,88.42
2018-07-12T03:35:28.959Z,86.98
2018-07-12T03:37:56.067Z,88.51
2018-07-12T03:40:23.215Z,87.94
2018-07-12T03:42:50.329Z,87.94
2018-07-12T03:45:17.539Z,87.48
2018-07-12T03:47:44.786Z,87.25
2018-07-12T03:50:11.867Z,86.67
2018-07-12T03:52:38.984Z,86.63
2018-07-12T03:55:06.105Z,84.77
2018-07-12T03:57:33.226Z,85.38
2018-07-12T04:00:00.312Z,87.37
2018-07-12T04:02:27.403Z,85.66
2018-07-12T04:04:55.676Z,85.34
2018-07-12T04:07:22.779Z,86.85
2018-07-12T04:09:50.155Z,85.67
2018-07-12T04:12:17.252Z,85.92
2018-07-12T04:14:44.330Z,84.25
2018-07-12T04:17:15.584Z,87.03
2018-07-12T04:19:42.660Z,85.13
2018-07-12T04:22:09.744Z,86.56
2018-07-12T04:24:36.868Z,88.33
2018-07-12T04:27:03.994Z,87.26
2018-07-12T04:29:31.164Z,86.68
2018-07-12T04:31:58.287Z,86.37
2018-07-12T04:34:25.419Z,87.10
2018-07-12T04:36:52.465Z,87.16
2018-07-12T04:39:19.579Z,87.93
2018-07-12T04:41:46.639Z,87.68
2018-07-12T04:44:13.754Z,87.91
2018-07-12T04:46:40.883Z,86.02
2018-07-12T04:49:07.992Z,84.87
2018-07-12T04:51:35.072Z,84.80
2018-07-12T04:54:02.159Z,85.79
2018-07-12T04:56:30.120Z,86.37
2018-07-12T04:59:05.231Z,86.93
2018-07-12T05:01:32.672Z,86.14
2018-07-12T05:04:00.684Z,86.78
2018-07-12T05:06:27.818Z,85.37
2018-07-12T05:08:55.550Z,84.68
2018-07-12T05:11:23.434Z,83.41
2018-07-12T05:13:50.702Z,84.65
2018-07-12T05:16:17.893Z,84.54
2018-07-12T05:18:44.882Z,84.55
2018-07-12T05:21:11.987Z,83.83
2018-07-12T05:23:39.051Z,84.29
2018-07-12T05:26:06.151Z,84.01
2018-07-12T05:28:33.233Z,83.84
2018-07-12T05:31:00.427Z,83.50
2018-07-12T05:33:27.492Z,83.59
2018-07-12T05:35:55.652Z,83.29
2018-07-12T05:38:23.894Z,82.38
2018-07-12T05:40:51.998Z,82.79
2018-07-12T05:43:20.210Z,82.52
2018-07-12T05:45:48.360Z,81.58
2018-07-12T05:48:16.516Z,81.76
2018-07-12T05:50:47.061Z,81.72
2018-07-12T05:53:16.013Z,82.18
2018-07-12T05:55:44.110Z,81.21
2018-07-12T05:58:12.234Z,80.19
2018-07-12T06:00:40.606Z,79.93
2018-07-12T06:03:08.933Z,79.75
2018-07-12T06:05:37.127Z,80.11
2018-07-12T06:08:05.262Z,79.90
2018-07-12T06:10:33.871Z,79.25
2018-07-12T06:13:01.986Z,80.34
2018-07-12T06:15:30.126Z,79.09
2018-07-12T06:17:58.253Z,79.13
2018-07-12T06:20:27.073Z,79.74
2018-07-12T06:22:55.514Z,78.82
2018-07-12T06:25:23.729Z,79.29
2018-07-12T06:27:51.885Z,78.65
2018-07-12T06:30:19.954Z,79.20
2018-07-12T06:32:48.026Z,79.40
2018-07-12T06:35:16.183Z,79.36
2018-07-12T06:37:44.293Z,78.84
2018-07-12T06:40:12.472Z,78.18
2018-07-12T06:42:40.856Z,77.42
2018-07-12T06:45:08.874Z,78.20
2018-07-12T06:47:36.954Z,77.87
2018-07-12T06:50:05.119Z,77.30
2018-07-12T06:52:33.230Z,77.17
2018-07-12T06:55:01.408Z,76.54
2018-07-12T06:57:29.542Z,75.99
2018-07-12T06:59:57.778Z,75.73
2018-07-12T07:02:25.860Z,75.50
2018-07-12T07:04:53.934Z,75.48
2018-07-12T07:07:22.022Z,74.01
2018-07-12T07:09:50.152Z,74.33
2018-07-12T07:15:08.679Z,72.98
2018-07-12T07:17:36.905Z,71.94
2018-07-12T07:20:05.061Z,71.05
2018-07-12T07:22:33.191Z,72.05
2018-07-12T07:25:01.371Z,72.23
2018-07-12T07:27:30.909Z,70.53
2018-07-12T07:29:59.124Z,69.04
2018-07-12T07:32:27.671Z,70.23
2018-07-12T07:34:55.830Z,68.96
2018-07-12T07:37:24.077Z,67.38
2018-07-12T07:39:52.270Z,67.88
2018-07-12T07:42:20.599Z,67.60
2018-07-12T07:44:48.698Z,68.71
2018-07-12T07:47:16.844Z,68.38
2018-07-12T07:49:45.104Z,68.67
2018-07-12T07:52:13.564Z,66.55
2018-07-12T07:54:41.700Z,68.30
2018-07-12T07:57:10.125Z,66.92
2018-07-12T07:59:38.188Z,66.99
2018-07-12T08:02:06.313Z,63.81
2018-07-12T08:04:34.422Z,65.57
2018-07-12T08:07:02.700Z,65.05
2018-07-12T08:09:30.932Z,63.94
2018-07-12T08:11:59.054Z,65.94
2018-07-12T08:14:27.843Z,65.66
2018-07-12T08:16:56.210Z,64.94
2018-07-12T08:19:24.364Z,65.26
2018-07-12T08:22:03.431Z,64.87
2018-07-12T08:24:31.672Z,64.38
2018-07-12T08:27:00.040Z,63.37
2018-07-12T08:29:28.195Z,64.00
2018-07-12T08:31:56.312Z,64.41
2018-07-12T08:34:24.483Z,62.52
2018-07-12T08:36:52.781Z,64.53
2018-07-12T08:39:20.918Z,63.99
2018-07-12T08:41:49.167Z,63.21
2018-07-12T08:44:17.530Z,62.56
2018-07-12T08:46:45.922Z,63.85
2018-07-12T08:49:14.066Z,63.51
2018-07-12T08:51:42.385Z,62.67
2018-07-12T08:54:10.685Z,59.41
2018-07-12T08:56:39.023Z,61.53
2018-07-12T08:59:07.811Z,61.59
2018-07-12T09:01:35.973Z,61.90
2018-07-12T09:04:04.258Z,60.79
2018-07-12T09:06:32.599Z,60.90
2018-07-12T09:09:00.722Z,59.72
2018-07-12T09:11:28.963Z,59.24
2018-07-12T09:13:58.198Z,59.75
2018-07-12T09:16:26.459Z,58.53
2018-07-12T09:18:57.012Z,57.60
2018-07-12T09:21:25.343Z,56.98
2018-07-12T09:23:53.539Z,58.16
2018-07-12T09:26:21.743Z,57.69
2018-07-12T09:28:51.956Z,57.49
2018-07-12T09:31:20.299Z,56.80
2018-07-12T09:33:48.746Z,57.34
2018-07-12T09:36:17.150Z,57.06
2018-07-12T09:38:47.517Z,55.62
2018-07-12T09:41:16.033Z,55.50
2018-07-12T09:43:45.091Z,56.84
2018-07-12T09:46:13.233Z,56.99
2018-07-12T09:48:42.691Z,54.39
2018-07-12T09:51:11.642Z,55.82
2018-07-12T09:53:40.651Z,55.19
2018-07-12T09:56:08.868Z,55.23
2018-07-12T09:58:38.203Z,55.81
2018-07-12T10:01:13.889Z,54.28
2018-07-12T10:03:48.303Z,55.33
2018-07-12T10:06:21.897Z,53.38
2018-07-12T10:08:55.948Z,55.49
2018-07-12T10:11:29.342Z,52.14
2018-07-12T10:14:02.874Z,52.87
2018-07-12T10:16:36.181Z,52.73
2018-07-12T10:19:04.315Z,51.81
2018-07-12T10:21:32.563Z,53.19
2018-07-12T10:24:00.699Z,53.49
2018-07-12T10:26:29.912Z,52.46
2018-07-12T10:28:59.424Z,53.52
2018-07-12T10:31:27.568Z,53.23
2018-07-12T10:33:55.692Z,52.50
2018-07-12T10:36:23.864Z,51.80
2018-07-12T10:38:52.143Z,51.66
2018-07-12T10:41:20.379Z,50.59
2018-07-12T10:43:48.712Z,54.40
2018-07-12T10:46:17.002Z,54.33
2018-07-12T10:48:45.254Z,55.23
2018-07-12T10:51:13.380Z,54.63
2018-07-12T10:53:41.520Z,52.62
2018-07-12T10:56:09.682Z,52.83
2018-07-12T10:58:37.797Z,52.73
2018-07-12T11:01:06.174Z,51.44
2018-07-12T11:03:34.291Z,51.55
2018-07-12T11:06:02.369Z,51.92
2018-07-12T11:08:30.599Z,53.25
2018-07-12T11:10:58.827Z,52.79
2018-07-12T11:13:38.178Z,51.72
2018-07-12T11:16:06.269Z,52.62
2018-07-12T11:18:34.388Z,52.95
2018-07-12T11:21:02.805Z,53.07
2018-07-12T11:23:31.592Z,51.11
2018-07-12T11:25:59.932Z,50.97
2018-07-12T11:28:28.034Z,49.96
2018-07-12T11:30:56.182Z,50.30
2018-07-12T11:33:42.203Z,48.94
2018-07-12T11:36:10.580Z,49.96
2018-07-12T11:38:39.754Z,50.38
2018-07-12T11:41:08.469Z,49.17
2018-07-12T11:43:36.640Z,50.10
2018-07-12T11:46:06.964Z,49.74
2018-07-12T11:48:36.350Z,49.48
2018-07-12T11:51:04.866Z,49.02
2018-07-12T11:53:33.011Z,49.70
2018-07-12T11:56:01.160Z,48.88
2018-07-12T11:58:29.266Z,48.38
2018-07-12T12:00:58.278Z,48.40
2018-07-12T12:03:26.889Z,49.84
2018-07-12T12:05:55.084Z,47.92
2018-07-12T12:08:23.511Z,47.58
2018-07-12T12:10:51.831Z,45.20
2018-07-12T12:13:20.159Z,46.19
2018-07-12T12:15:48.218Z,45.90
2018-07-12T12:18:17.323Z,40.62
2018-07-12T12:20:45.567Z,36.67
2018-07-12T12:23:15.646Z,35.53
2018-07-12T12:25:43.816Z,36.38
2018-07-12T12:28:18.603Z,31.00
2018-07-12T12:30:47.015Z,34.49
2018-07-12T12:33:15.228Z,34.39
2018-07-12T12:35:43.740Z,35.17
2018-07-12T12:38:13.138Z,32.52
2018-07-12T12:40:42.173Z,36.23
2018-07-12T12:43:10.452Z,38.98
2018-07-12T12:45:38.769Z,37.87
2018-07-12T12:48:06.884Z,39.26
2018-07-12T12:50:37.241Z,39.49
2018-07-12T12:53:05.407Z,40.68
2018-07-12T12:55:33.720Z,40.58
2018-07-12T12:58:01.900Z,41.21
2018-07-12T13:00:30.008Z,41.56
2018-07-12T13:02:58.133Z,41.09
2018-07-12T13:05:26.448Z,38.19
2018-07-12T13:07:54.604Z,36.19
2018-07-12T13:10:23.081Z,31.56
2018-07-12T13:12:51.451Z,31.63
2018-07-12T13:15:19.933Z,33.52
2018-07-12T13:17:48.394Z,34.16
2018-07-12T13:20:16.579Z,34.65
2018-07-12T13:22:44.862Z,37.23
2018-07-12T13:25:13.125Z,37.09
2018-07-12T13:27:41.351Z,38.32
2018-07-12T13:30:10.359Z,37.81
2018-07-12T13:32:38.515Z,36.30
2018-07-12T13:35:06.608Z,34.35
2018-07-12T13:37:34.901Z,32.86
2018-07-12T13:40:03.193Z,33.55
2018-07-12T13:42:31.683Z,31.62
2018-07-12T13:45:00.137Z,30.26
2018-07-12T13:47:28.730Z,28.55
2018-07-12T13:49:58.627Z,28.97
2018-07-12T13:52:27.101Z,31.03
2018-07-12T13:54:55.493Z,31.75
2018-07-12T13:57:24.093Z,32.55
2018-07-12T13:59:53.432Z,33.25
2018-07-12T14:02:22.119Z,33.39
2018-07-12T14:04:50.653Z,33.92
2018-07-12T14:07:18.973Z,34.14
2018-07-12T14:09:47.226Z,35.79
2018-07-12T14:12:15.452Z,36.85
2018-07-12T14:14:43.584Z,37.55
2018-07-12T14:17:12.566Z,37.07
2018-07-12T14:19:41.030Z,37.31
2018-07-12T14:22:09.323Z,36.98
2018-07-12T14:24:37.561Z,38.02
2018-07-12T14:27:05.879Z,36.47
2018-07-12T14:29:34.005Z,35.89
2018-07-12T14:32:03.375Z,36.51
2018-07-12T14:34:32.002Z,38.23
2018-07-12T14:37:00.603Z,36.91
2018-07-12T14:39:28.802Z,37.12
2018-07-12T14:41:56.967Z,36.59
2018-07-12T14:44:25.570Z,33.88
2018-07-12T14:46:53.770Z,28.53
2018-07-12T14:49:22.202Z,27.98
2018-07-12T14:51:50.384Z,30.33
2018-07-12T14:54:18.462Z,30.51
2018-07-12T14:56:46.644Z,32.22
2018-07-12T14:59:14.791Z,30.89
2018-07-12T15:01:43.081Z,30.13
2018-07-12T15:04:11.336Z,32.53
2018-07-12T15:06:39.859Z,34.18
2018-07-12T15:09:08.795Z,30.83
2018-07-12T15:11:37.612Z,30.21
2018-07-12T15:14:05.991Z,27.87
2018-07-12T15:16:34.201Z,29.41
2018-07-12T15:19:02.652Z,28.78
2018-07-12T15:21:31.976Z,27.46
2018-07-12T15:24:00.446Z,27.36
2018-07-12T15:26:28.646Z,29.39
2018-07-12T15:28:56.755Z,28.25
2018-07-12T15:31:25.352Z,28.41
2018-07-12T15:33:54.484Z,26.63
2018-07-12T15:36:22.712Z,27.09
2018-07-12T15:38:50.870Z,27.60
2018-07-12T15:41:18.975Z,27.75
2018-07-12T15:43:47.095Z,24.67
2018-07-12T15:46:15.215Z,25.22
2018-07-12T15:48:43.371Z,25.09
2018-07-12T15:51:12.115Z,24.81
2018-07-12T15:53:40.389Z,23.75
2018-07-12T15:56:08.598Z,24.32
2018-07-12T15:58:37.175Z,23.94
2018-07-12T16:01:05.759Z,23.97
2018-07-12T16:03:34.241Z,24.24
2018-07-12T16:06:02.455Z,23.35
2018-07-12T16:08:30.857Z,25.78
2018-07-12T16:10:58.992Z,27.11
2018-07-12T16:13:27.215Z,28.74
2018-07-12T16:15:55.645Z,29.39
2018-07-12T16:18:24.054Z,29.62
2018-07-12T16:20:52.516Z,30.90
2018-07-12T16:23:20.601Z,31.28
2018-07-12T16:25:49.274Z,31.80
2018-07-12T16:28:18.094Z,31.43
2018-07-12T16:30:46.603Z,32.06
2018-07-12T16:33:14.912Z,31.49
2018-07-12T16:35:43.107Z,33.40
2018-07-12T16:38:11.279Z,33.12
2018-07-12T16:40:39.424Z,32.64
2018-07-12T16:43:07.591Z,34.24
2018-07-12T16:45:36.876Z,34.14
2018-07-12T16:48:05.146Z,33.17
2018-07-12T16:50:33.340Z,34.47
2018-07-12T16:53:01.499Z,34.49
2018-07-12T16:55:30.590Z,34.68
2018-07-12T16:57:58.690Z,34.08
2018-07-12T17:00:26.857Z,34.18
2018-07-12T17:02:55.065Z,35.94
2018-07-12T17:05:23.216Z,36.13
2018-07-12T17:07:51.430Z,34.76
2018-07-12T17:10:19.562Z,35.83
2018-07-12T17:12:47.780Z,35.02
2018-07-12T17:15:15.892Z,35.56
2018-07-12T17:17:44.207Z,35.27
2018-07-12T17:20:12.748Z,35.87
2018-07-12T17:22:40.922Z,36.33
2018-07-12T17:25:09.024Z,35.29
2018-07-12T17:27:37.111Z,36.22
2018-07-12T17:30:05.744Z,36.30
2018-07-12T17:32:34.258Z,36.55
2018-07-12T17:35:02.535Z,36.98
2018-07-12T17:37:31.064Z,38.29
2018-07-12T17:39:59.186Z,37.81
2018-07-12T17:42:27.293Z,37.47
2018-07-12T17:44:55.448Z,36.72
2018-07-12T17:47:23.769Z,37.50
2018-07-12T17:49:51.813Z,37.47
2018-07-12T17:52:20.142Z,37.35
2018-07-12T17:54:48.303Z,37.68
2018-07-12T17:57:16.424Z,37.00
2018-07-12T17:59:44.567Z,37.62
2018-07-12T18:02:12.791Z,38.26
2018-07-12T18:04:40.964Z,38.54
2018-07-12T18:07:09.082Z,37.61
2018-07-12T18:09:37.200Z,39.38
2018-07-12T18:12:05.499Z,38.62
2018-07-12T18:14:33.887Z,38.36
2018-07-12T18:17:01.977Z,37.50
2018-07-12T18:19:30.831Z,38.51
2018-07-12T18:21:59.274Z,38.73
2018-07-12T18:24:28.142Z,38.70
2018-07-12T18:26:56.322Z,38.48
2018-07-12T18:29:24.641Z,38.69
2018-07-12T18:31:52.826Z,39.00
2018-07-12T18:34:22.119Z,39.16
2018-07-12T18:36:50.257Z,39.20
2018-07-12T18:39:18.657Z,39.56
2018-07-12T18:41:46.930Z,39.54
2018-07-12T18:44:15.136Z,39.67
2018-07-12T18:46:43.358Z,39.00
2018-07-12T18:49:12.090Z,39.59
2018-07-12T18:51:40.470Z,38.67
2018-07-12T18:54:08.791Z,39.49
2018-07-12T18:56:36.904Z,39.76
2018-07-12T18:59:05.267Z,39.73
2018-07-12T19:01:33.700Z,39.24
2018-07-12T19:04:01.839Z,40.40
2018-07-12T19:06:30.983Z,40.67
2018-07-12T19:08:59.346Z,41.18
2018-07-12T19:11:27.399Z,40.39
2018-07-12T19:13:55.761Z,40.83
2018-07-12T19:16:23.943Z,41.80
2018-07-12T19:18:55.050Z,41.49
2018-07-12T19:21:23.284Z,41.53
2018-07-12T19:23:51.375Z,40.93
2018-07-12T19:26:19.509Z,41.03
2018-07-12T19:28:47.619Z,41.85
2018-07-12T19:31:15.788Z,41.95
2018-07-12T19:33:43.930Z,41.90
2018-07-12T19:36:12.037Z,42.05
2018-07-12T19:38:40.159Z,42.93
2018-07-12T19:41:08.532Z,43.50
2018-07-12T19:43:37.251Z,44.58
2018-07-12T19:46:05.344Z,46.70
2018-07-12T19:48:33.469Z,46.73
2018-07-12T19:51:01.933Z,47.08
2018-07-12T19:53:30.458Z,48.85
2018-07-12T19:55:58.612Z,49.92
2018-07-12T19:58:26.677Z,48.66
2018-07-12T20:00:54.797Z,49.16
2018-07-12T20:03:23.921Z,52.05
2018-07-12T20:05:51.971Z,52.47
2018-07-12T20:08:20.064Z,51.12
2018-07-12T20:10:48.621Z,51.79
2018-07-12T20:13:43.073Z,51.17
2018-07-12T20:16:13.608Z,50.83
2018-07-12T20:18:41.748Z,51.69
2018-07-12T20:21:09.944Z,51.64
2018-07-12T20:23:48.048Z,52.55
2018-07-12T20:26:16.395Z,51.37
2018-07-12T20:28:44.904Z,51.93
2018-07-12T20:31:13.253Z,51.74
2018-07-12T20:33:41.318Z,51.79
2018-07-12T20:36:09.444Z,53.07
2018-07-12T20:38:37.567Z,51.76
2018-07-12T20:41:06.000Z,51.88
2018-07-12T20:43:34.167Z,50.78
2018-07-12T20:46:02.327Z,52.06
2018-07-12T20:48:31.439Z,51.54
2018-07-12T20:50:59.788Z,52.30
2018-07-12T20:53:28.036Z,52.58
2018-07-12T20:55:56.279Z,52.29
2018-07-12T20:58:24.533Z,55.47
2018-07-12T21:00:52.679Z,54.06
2018-07-12T21:03:20.844Z,52.96
2018-07-12T21:05:48.979Z,52.96
2018-07-12T21:08:17.393Z,54.16
2018-07-12T21:10:45.628Z,53.47
2018-07-12T21:13:15.016Z,52.82
2018-07-12T21:15:43.199Z,54.82
2018-07-12T21:18:11.368Z,54.50
2018-07-12T21:20:39.562Z,54.11
2018-07-12T21:23:07.872Z,55.26
2018-07-12T21:25:37.031Z,54.70
2018-07-12T21:28:05.283Z,54.64
2018-07-12T21:30:33.667Z,53.32
2018-07-12T21:33:01.840Z,54.11
2018-07-12T21:35:29.969Z,56.33
2018-07-12T21:37:58.137Z,55.88
2018-07-12T21:40:26.246Z,57.14
2018-07-12T21:42:54.448Z,55.68
2018-07-12T21:45:22.536Z,55.60
2018-07-12T21:47:50.700Z,56.48
2018-07-12T21:50:20.982Z,56.41
2018-07-12T21:52:49.157Z,55.08
2018-07-12T21:55:17.287Z,56.16
2018-07-12T21:57:45.478Z,56.62
2018-07-12T22:00:14.228Z,56.92
2018-07-12T22:02:42.468Z,56.58
2018-07-12T22:05:10.772Z,57.25
2018-07-12T22:07:50.736Z,56.92
2018-07-12T22:10:18.941Z,56.34
2018-07-12T22:12:47.213Z,57.06
2018-07-12T22:15:15.682Z,55.98
2018-07-12T22:17:43.838Z,57.05
2018-07-12T22:20:11.999Z,58.12
2018-07-12T22:22:40.202Z,59.39
2018-07-12T22:25:08.359Z,58.86
2018-07-12T22:27:36.512Z,58.39
2018-07-12T22:30:06.808Z,58.18
2018-07-12T22:32:37.294Z,57.53
2018-07-12T22:35:05.616Z,57.50
2018-07-12T22:37:33.747Z,58.27
2018-07-12T22:40:01.872Z,57.87
2018-07-12T22:42:30.241Z,58.18
2018-07-12T22:44:58.782Z,57.65
2018-07-12T22:47:27.038Z,58.17
2018-07-12T22:49:55.195Z,59.30
2018-07-12T22:52:23.414Z,59.00
2018-07-12T22:54:51.967Z,57.98
2018-07-12T22:57:20.313Z,59.57
2018-07-12T22:59:48.894Z,58.06
2018-07-12T23:02:17.187Z,58.56
2018-07-12T23:04:45.671Z,58.83
2018-07-12T23:07:13.924Z,58.67
2018-07-12T23:09:42.050Z,59.10
2018-07-12T23:12:10.234Z,58.50
2018-07-12T23:14:40.146Z,59.63
2018-07-12T23:17:08.293Z,59.56
2018-07-12T23:19:37.287Z,59.51
2018-07-12T23:22:05.655Z,61.11
2018-07-12T23:24:33.872Z,60.05
2018-07-12T23:27:02.220Z,60.39
2018-07-12T23:29:31.411Z,61.75
2018-07-12T23:31:59.536Z,60.25
2018-07-12T23:34:27.797Z,60.30
2018-07-12T23:36:55.931Z,60.99
2018-07-12T23:39:24.105Z,61.71
2018-07-12T23:41:52.273Z,60.09
2018-07-12T23:44:20.417Z,61.35
2018-07-12T23:46:49.787Z,60.57
2018-07-12T23:49:17.908Z,61.89
2018-07-12T23:51:46.119Z,63.32
2018-07-12T23:54:14.243Z,63.69
2018-07-12T23:56:42.334Z,62.55
2018-07-12T23:59:10.486Z,63.48
